sensor_id;sensor_type;location;lat;lon;timestamp;temperature;humidity
7512;DHT22;9999;48.780;9.146;2023-04-25T00:01:05;8.10;99.90
7512;DHT22;9999;48.780;9.146;2023-04-25T00:03:34;8.10;99.90
7512;DHT22;9999;48.780;9.146;2023-04-25T00:06:01;8.10;99.90
7512;DHT22;9999;48.780;9.146;2023-04-25T00:08:29;8.10;99.90
7512;DHT22;9999;48.780;9.146;2023-04-25T00:10:57;8.00;99.90
7512;DHT22;9999;48.780;9.146;2023-04-25T00:13:24;8.00;99.90
7512;DHT22;9999;48.780;9.146;2023-04-25T00:15:52;8.10;99.90
7512;DHT22;9999;48.780;9.146;2023-04-25T00:18:19;8.10;99.90
7512;DHT22;9999;48.780;9.146;2023-04-25T00:20:46;8.10;99.90
7512;DHT22;9999;48.780;9.146;2023-04-25T00:23:12;8.20;99.90
7512;DHT22;9999;48.780;9.146;2023-04-25T00:25:43;8.20;99.90
7512;DHT22;9999;48.780;9.146;2023-04-25T00:28:11;8.20;99.90
7512;DHT22;9999;48.780;9.146;2023-04-25T00:30:38;8.20;99.90
7512;DHT22;9999;48.780;9.146;2023-04-25T00:33:05;8.20;99.90
7512;DHT22;9999;48.780;9.146;2023-04-25T00:35:32;8.10;99.90
7512;DHT22;9999;48.780;9.146;2023-04-25T00:37:59;8.10;99.90
7512;DHT22;9999;48.780;9.146;2023-04-25T00:40:26;8.20;99.90
7512;DHT22;9999;48.780;9.146;2023-04-25T00:42:53;8.20;99.90
7512;DHT22;9999;48.780;9.146;2023-04-25T00:45:22;8.20;99.90
7512;DHT22;9999;48.780;9.146;2023-04-25T00:47:54;8.20;99.90
7512;DHT22;9999;48.780;9.146;2023-04-25T00:50:21;8.10;99.90
7512;DHT22;9999;48.780;9.146;2023-04-25T00:52:48;8.10;99.90
7512;DHT22;9999;48.780;9.146;2023-04-25T00:55:15;8.00;99.90
7512;DHT22;9999;48.780;9.146;2023-04-25T00:57:42;8.00;99.90
7512;DHT22;9999;48.780;9.146;2023-04-25T01:00:10;8.10;99.90
7512;DHT22;9999;48.780;9.146;2023-04-25T01:02:40;8.00;99.90
7512;DHT22;9999;48.780;9.146;2023-04-25T01:05:08;8.00;99.90
7512;DHT22;9999;48.780;9.146;2023-04-25T01:07:35;8.00;99.90
7512;DHT22;9999;48.780;9.146;2023-04-25T01:10:02;8.00;99.90
7512;DHT22;9999;48.780;9.146;2023-04-25T01:12:30;8.00;99.90
7512;DHT22;9999;48.780;9.146;2023-04-25T01:14:57;8.10;99.90
7512;DHT22;9999;48.780;9.146;2023-04-25T01:17:24;8.10;99.90
7512;DHT22;9999;48.780;9.146;2023-04-25T01:19:52;8.10;99.90
7512;DHT22;9999;48.780;9.146;2023-04-25T01:22:20;8.10;99.90
7512;DHT22;9999;48.780;9.146;2023-04-25T01:24:47;7.90;99.90
7512;DHT22;9999;48.780;9.146;2023-04-25T01:27:14;8.00;99.90
7512;DHT22;9999;48.780;9.146;2023-04-25T01:29:42;7.90;99.90
7512;DHT22;9999;48.780;9.146;2023-04-25T01:32:09;8.00;99.90
7512;DHT22;9999;48.780;9.146;2023-04-25T01:34:36;8.10;99.90
7512;DHT22;9999;48.780;9.146;2023-04-25T01:37:03;8.20;99.90
7512;DHT22;9999;48.780;9.146;2023-04-25T01:39:31;8.10;99.90
7512;DHT22;9999;48.780;9.146;2023-04-25T01:41:59;8.00;99.90
7512;DHT22;9999;48.780;9.146;2023-04-25T01:44:27;7.90;99.90
7512;DHT22;9999;48.780;9.146;2023-04-25T01:46:54;7.90;99.90
7512;DHT22;9999;48.780;9.146;2023-04-25T01:49:21;8.00;99.90
7512;DHT22;9999;48.780;9.146;2023-04-25T01:51:48;7.90;99.90
7512;DHT22;9999;48.780;9.146;2023-04-25T01:54:15;7.90;99.90
7512;DHT22;9999;48.780;9.146;2023-04-25T01:56:43;7.90;99.90
7512;DHT22;9999;48.780;9.146;2023-04-25T01:59:11;7.90;99.90
7512;DHT22;9999;48.780;9.146;2023-04-25T02:02:04;7.90;99.90
7512;DHT22;9999;48.780;9.146;2023-04-25T02:04:32;7.90;99.90
7512;DHT22;9999;48.780;9.146;2023-04-25T02:07:00;7.90;99.90
7512;DHT22;9999;48.780;9.146;2023-04-25T02:09:36;7.90;99.90
7512;DHT22;9999;48.780;9.146;2023-04-25T02:12:08;7.80;99.90
7512;DHT22;9999;48.780;9.146;2023-04-25T02:15:05;7.90;99.90
7512;DHT22;9999;48.780;9.146;2023-04-25T02:17:40;7.90;99.90
7512;DHT22;9999;48.780;9.146;2023-04-25T02:20:07;7.80;99.90
7512;DHT22;9999;48.780;9.146;2023-04-25T02:22:34;7.80;99.90
7512;DHT22;9999;48.780;9.146;2023-04-25T02:25:01;7.70;99.90
7512;DHT22;9999;48.780;9.146;2023-04-25T02:27:31;7.80;99.90
7512;DHT22;9999;48.780;9.146;2023-04-25T02:29:58;7.80;99.90
7512;DHT22;9999;48.780;9.146;2023-04-25T02:32:25;7.80;99.90
7512;DHT22;9999;48.780;9.146;2023-04-25T02:34:52;7.90;99.90
7512;DHT22;9999;48.780;9.146;2023-04-25T02:37:19;8.00;99.90
7512;DHT22;9999;48.780;9.146;2023-04-25T02:39:46;8.00;99.90
7512;DHT22;9999;48.780;9.146;2023-04-25T02:42:13;8.00;99.90
7512;DHT22;9999;48.780;9.146;2023-04-25T02:44:41;7.90;99.90
7512;DHT22;9999;48.780;9.146;2023-04-25T02:47:08;7.90;99.90
7512;DHT22;9999;48.780;9.146;2023-04-25T02:49:35;7.70;99.90
7512;DHT22;9999;48.780;9.146;2023-04-25T02:52:02;7.60;99.90
7512;DHT22;9999;48.780;9.146;2023-04-25T02:54:29;7.70;99.90
7512;DHT22;9999;48.780;9.146;2023-04-25T02:56:57;7.70;99.90
7512;DHT22;9999;48.780;9.146;2023-04-25T02:59:28;7.80;99.90
7512;DHT22;9999;48.780;9.146;2023-04-25T03:01:56;7.80;99.90
7512;DHT22;9999;48.780;9.146;2023-04-25T03:04:24;7.70;99.90
7512;DHT22;9999;48.780;9.146;2023-04-25T03:06:51;7.70;99.90
7512;DHT22;9999;48.780;9.146;2023-04-25T03:09:20;7.60;99.90
7512;DHT22;9999;48.780;9.146;2023-04-25T03:11:47;7.60;99.90
7512;DHT22;9999;48.780;9.146;2023-04-25T03:14:14;7.60;99.90
7512;DHT22;9999;48.780;9.146;2023-04-25T03:16:43;7.60;99.90
7512;DHT22;9999;48.780;9.146;2023-04-25T03:19:11;7.60;99.90
7512;DHT22;9999;48.780;9.146;2023-04-25T03:21:41;7.60;99.90
7512;DHT22;9999;48.780;9.146;2023-04-25T03:24:08;7.60;99.90
7512;DHT22;9999;48.780;9.146;2023-04-25T03:26:36;7.70;99.90
7512;DHT22;9999;48.780;9.146;2023-04-25T03:29:03;7.60;99.90
7512;DHT22;9999;48.780;9.146;2023-04-25T03:31:30;7.70;99.90
7512;DHT22;9999;48.780;9.146;2023-04-25T03:33:57;7.70;99.90
7512;DHT22;9999;48.780;9.146;2023-04-25T03:36:26;7.70;99.90
7512;DHT22;9999;48.780;9.146;2023-04-25T03:38:52;7.70;99.90
7512;DHT22;9999;48.780;9.146;2023-04-25T03:41:21;7.70;99.90
7512;DHT22;9999;48.780;9.146;2023-04-25T03:43:52;7.70;99.90
7512;DHT22;9999;48.780;9.146;2023-04-25T03:46:19;7.60;99.90
7512;DHT22;9999;48.780;9.146;2023-04-25T03:48:47;7.60;99.90
7512;DHT22;9999;48.780;9.146;2023-04-25T03:51:20;7.60;99.90
7512;DHT22;9999;48.780;9.146;2023-04-25T03:53:49;7.60;99.90
7512;DHT22;9999;48.780;9.146;2023-04-25T03:56:18;7.60;99.90
7512;DHT22;9999;48.780;9.146;2023-04-25T03:58:47;7.60;99.90
7512;DHT22;9999;48.780;9.146;2023-04-25T04:01:16;7.60;99.90
7512;DHT22;9999;48.780;9.146;2023-04-25T04:03:43;7.60;99.90
7512;DHT22;9999;48.780;9.146;2023-04-25T04:06:10;7.60;99.90
7512;DHT22;9999;48.780;9.146;2023-04-25T04:08:41;7.70;99.90
7512;DHT22;9999;48.780;9.146;2023-04-25T04:11:11;7.60;99.90
7512;DHT22;9999;48.780;9.146;2023-04-25T04:13:38;7.60;99.90
7512;DHT22;9999;48.780;9.146;2023-04-25T04:16:06;7.50;99.90
7512;DHT22;9999;48.780;9.146;2023-04-25T04:18:33;7.50;99.90
7512;DHT22;9999;48.780;9.146;2023-04-25T04:21:01;7.30;99.90
7512;DHT22;9999;48.780;9.146;2023-04-25T04:23:30;7.30;99.90
7512;DHT22;9999;48.780;9.146;2023-04-25T04:25:58;7.20;99.90
7512;DHT22;9999;48.780;9.146;2023-04-25T04:28:40;7.20;99.90
7512;DHT22;9999;48.780;9.146;2023-04-25T04:31:42;7.20;99.90
7512;DHT22;9999;48.780;9.146;2023-04-25T04:34:10;7.30;99.90
7512;DHT22;9999;48.780;9.146;2023-04-25T04:36:37;7.30;99.90
7512;DHT22;9999;48.780;9.146;2023-04-25T04:39:06;7.30;99.90
7512;DHT22;9999;48.780;9.146;2023-04-25T04:41:38;7.30;99.90
7512;DHT22;9999;48.780;9.146;2023-04-25T04:44:26;7.30;99.90
7512;DHT22;9999;48.780;9.146;2023-04-25T04:47:23;7.30;99.90
7512;DHT22;9999;48.780;9.146;2023-04-25T04:50:11;7.30;99.90
7512;DHT22;9999;48.780;9.146;2023-04-25T04:53:01;7.40;99.90
7512;DHT22;9999;48.780;9.146;2023-04-25T04:55:54;7.40;99.90
7512;DHT22;9999;48.780;9.146;2023-04-25T04:58:31;7.40;99.90
7512;DHT22;9999;48.780;9.146;2023-04-25T05:01:09;7.40;99.90
7512;DHT22;9999;48.780;9.146;2023-04-25T05:03:55;7.40;99.90
7512;DHT22;9999;48.780;9.146;2023-04-25T05:06:45;7.40;99.90
7512;DHT22;9999;48.780;9.146;2023-04-25T05:09:42;7.40;99.90
7512;DHT22;9999;48.780;9.146;2023-04-25T05:12:27;7.50;99.90
7512;DHT22;9999;48.780;9.146;2023-04-25T05:15:27;7.50;99.90
7512;DHT22;9999;48.780;9.146;2023-04-25T05:18:19;7.40;99.90
7512;DHT22;9999;48.780;9.146;2023-04-25T05:20:59;7.40;99.90
7512;DHT22;9999;48.780;9.146;2023-04-25T05:23:46;7.40;99.90
7512;DHT22;9999;48.780;9.146;2023-04-25T05:26:32;7.50;99.90
7512;DHT22;9999;48.780;9.146;2023-04-25T05:29:13;7.50;99.90
7512;DHT22;9999;48.780;9.146;2023-04-25T05:31:58;7.60;99.90
7512;DHT22;9999;48.780;9.146;2023-04-25T05:34:27;7.60;99.90
7512;DHT22;9999;48.780;9.146;2023-04-25T05:36:57;7.60;99.90
7512;DHT22;9999;48.780;9.146;2023-04-25T05:39:24;7.70;99.90
7512;DHT22;9999;48.780;9.146;2023-04-25T05:42:06;7.70;99.90
7512;DHT22;9999;48.780;9.146;2023-04-25T05:45:11;7.70;99.90
7512;DHT22;9999;48.780;9.146;2023-04-25T05:47:58;7.80;99.90
7512;DHT22;9999;48.780;9.146;2023-04-25T05:50:44;7.80;99.90
7512;DHT22;9999;48.780;9.146;2023-04-25T05:53:37;7.80;99.90
7512;DHT22;9999;48.780;9.146;2023-04-25T05:56:05;7.80;99.90
7512;DHT22;9999;48.780;9.146;2023-04-25T05:58:34;7.80;99.90
7512;DHT22;9999;48.780;9.146;2023-04-25T06:01:04;7.80;99.90
7512;DHT22;9999;48.780;9.146;2023-04-25T06:03:30;7.70;99.90
7512;DHT22;9999;48.780;9.146;2023-04-25T06:05:59;7.60;99.90
7512;DHT22;9999;48.780;9.146;2023-04-25T06:08:26;7.60;99.90
7512;DHT22;9999;48.780;9.146;2023-04-25T06:10:52;7.70;99.90
7512;DHT22;9999;48.780;9.146;2023-04-25T06:13:19;7.70;99.90
7512;DHT22;9999;48.780;9.146;2023-04-25T06:15:46;7.80;99.90
7512;DHT22;9999;48.780;9.146;2023-04-25T06:18:13;7.90;99.90
7512;DHT22;9999;48.780;9.146;2023-04-25T06:20:39;7.90;99.90
7512;DHT22;9999;48.780;9.146;2023-04-25T06:23:07;8.00;99.90
7512;DHT22;9999;48.780;9.146;2023-04-25T06:26:01;7.90;99.90
7512;DHT22;9999;48.780;9.146;2023-04-25T06:28:30;8.00;99.90
7512;DHT22;9999;48.780;9.146;2023-04-25T06:30:56;8.00;99.90
7512;DHT22;9999;48.780;9.146;2023-04-25T06:33:23;8.00;99.90
7512;DHT22;9999;48.780;9.146;2023-04-25T06:35:51;8.00;99.90
7512;DHT22;9999;48.780;9.146;2023-04-25T06:38:24;8.10;99.90
7512;DHT22;9999;48.780;9.146;2023-04-25T06:40:52;8.10;99.90
7512;DHT22;9999;48.780;9.146;2023-04-25T06:43:18;8.20;99.90
7512;DHT22;9999;48.780;9.146;2023-04-25T06:46:15;8.00;99.90
7512;DHT22;9999;48.780;9.146;2023-04-25T06:48:44;8.00;99.90
7512;DHT22;9999;48.780;9.146;2023-04-25T06:51:11;7.90;99.90
7512;DHT22;9999;48.780;9.146;2023-04-25T06:53:40;7.90;99.90
7512;DHT22;9999;48.780;9.146;2023-04-25T06:56:11;7.90;99.90
7512;DHT22;9999;48.780;9.146;2023-04-25T06:58:49;8.00;99.90
7512;DHT22;9999;48.780;9.146;2023-04-25T07:01:31;8.10;99.90
7512;DHT22;9999;48.780;9.146;2023-04-25T07:04:01;8.10;99.90
7512;DHT22;9999;48.780;9.146;2023-04-25T07:06:29;8.10;99.90
7512;DHT22;9999;48.780;9.146;2023-04-25T07:08:58;8.10;99.90
7512;DHT22;9999;48.780;9.146;2023-04-25T07:11:25;8.00;99.90
7512;DHT22;9999;48.780;9.146;2023-04-25T07:13:51;8.10;99.90
7512;DHT22;9999;48.780;9.146;2023-04-25T07:16:18;8.10;99.90
7512;DHT22;9999;48.780;9.146;2023-04-25T07:18:46;8.10;99.90
7512;DHT22;9999;48.780;9.146;2023-04-25T07:21:13;8.00;99.90
7512;DHT22;9999;48.780;9.146;2023-04-25T07:23:41;8.00;99.90
7512;DHT22;9999;48.780;9.146;2023-04-25T07:26:14;8.10;99.90
7512;DHT22;9999;48.780;9.146;2023-04-25T07:29:01;8.10;99.90
7512;DHT22;9999;48.780;9.146;2023-04-25T07:31:28;8.10;99.90
7512;DHT22;9999;48.780;9.146;2023-04-25T07:33:56;8.10;99.90
7512;DHT22;9999;48.780;9.146;2023-04-25T07:36:23;8.10;99.90
7512;DHT22;9999;48.780;9.146;2023-04-25T07:38:50;8.10;99.90
7512;DHT22;9999;48.780;9.146;2023-04-25T07:41:18;8.10;99.90
7512;DHT22;9999;48.780;9.146;2023-04-25T07:43:44;8.10;99.90
7512;DHT22;9999;48.780;9.146;2023-04-25T07:46:11;8.10;99.90
7512;DHT22;9999;48.780;9.146;2023-04-25T07:48:38;8.20;99.90
7512;DHT22;9999;48.780;9.146;2023-04-25T07:51:05;8.20;99.90
7512;DHT22;9999;48.780;9.146;2023-04-25T07:53:35;8.10;99.90
7512;DHT22;9999;48.780;9.146;2023-04-25T07:56:08;8.00;99.90
7512;DHT22;9999;48.780;9.146;2023-04-25T07:58:39;7.90;99.90
7512;DHT22;9999;48.780;9.146;2023-04-25T08:01:09;7.90;99.90
7512;DHT22;9999;48.780;9.146;2023-04-25T08:03:53;8.00;99.90
7512;DHT22;9999;48.780;9.146;2023-04-25T08:06:24;8.00;99.90
7512;DHT22;9999;48.780;9.146;2023-04-25T08:09:02;7.80;99.90
7512;DHT22;9999;48.780;9.146;2023-04-25T08:11:36;7.80;99.90
7512;DHT22;9999;48.780;9.146;2023-04-25T08:14:05;7.80;99.90
7512;DHT22;9999;48.780;9.146;2023-04-25T08:16:33;7.80;99.90
7512;DHT22;9999;48.780;9.146;2023-04-25T08:19:01;7.90;99.90
7512;DHT22;9999;48.780;9.146;2023-04-25T08:21:28;7.90;99.90
7512;DHT22;9999;48.780;9.146;2023-04-25T08:23:57;7.80;99.90
7512;DHT22;9999;48.780;9.146;2023-04-25T08:26:28;7.80;99.90
7512;DHT22;9999;48.780;9.146;2023-04-25T08:28:56;7.80;99.90
7512;DHT22;9999;48.780;9.146;2023-04-25T08:31:25;7.80;99.90
7512;DHT22;9999;48.780;9.146;2023-04-25T08:33:56;7.80;99.90
7512;DHT22;9999;48.780;9.146;2023-04-25T08:36:32;7.80;99.90
7512;DHT22;9999;48.780;9.146;2023-04-25T08:38:59;7.70;99.90
7512;DHT22;9999;48.780;9.146;2023-04-25T08:41:29;7.70;99.90
7512;DHT22;9999;48.780;9.146;2023-04-25T08:43:59;7.70;99.90
7512;DHT22;9999;48.780;9.146;2023-04-25T08:46:28;7.70;99.90
7512;DHT22;9999;48.780;9.146;2023-04-25T08:49:09;7.60;99.90
7512;DHT22;9999;48.780;9.146;2023-04-25T08:51:45;7.50;99.90
7512;DHT22;9999;48.780;9.146;2023-04-25T08:54:15;7.40;99.90
7512;DHT22;9999;48.780;9.146;2023-04-25T08:56:44;7.50;99.90
7512;DHT22;9999;48.780;9.146;2023-04-25T08:59:13;7.50;99.90
7512;DHT22;9999;48.780;9.146;2023-04-25T09:01:45;7.60;99.90
7512;DHT22;9999;48.780;9.146;2023-04-25T09:04:12;7.70;99.90
7512;DHT22;9999;48.780;9.146;2023-04-25T09:06:40;7.70;99.90
7512;DHT22;9999;48.780;9.146;2023-04-25T09:09:08;7.60;99.90
7512;DHT22;9999;48.780;9.146;2023-04-25T09:11:36;7.60;99.90
7512;DHT22;9999;48.780;9.146;2023-04-25T09:14:11;7.60;99.90
7512;DHT22;9999;48.780;9.146;2023-04-25T09:17:04;7.60;99.90
7512;DHT22;9999;48.780;9.146;2023-04-25T09:20:09;7.60;99.90
7512;DHT22;9999;48.780;9.146;2023-04-25T09:22:37;7.70;99.90
7512;DHT22;9999;48.780;9.146;2023-04-25T09:25:08;7.80;99.90
7512;DHT22;9999;48.780;9.146;2023-04-25T09:27:36;7.90;99.90
7512;DHT22;9999;48.780;9.146;2023-04-25T09:30:16;8.00;99.90
7512;DHT22;9999;48.780;9.146;2023-04-25T09:33:11;7.90;99.90
7512;DHT22;9999;48.780;9.146;2023-04-25T09:35:43;7.90;99.90
7512;DHT22;9999;48.780;9.146;2023-04-25T09:38:21;7.90;99.90
7512;DHT22;9999;48.780;9.146;2023-04-25T09:40:59;8.00;99.90
7512;DHT22;9999;48.780;9.146;2023-04-25T09:43:39;7.90;99.90
7512;DHT22;9999;48.780;9.146;2023-04-25T09:46:09;7.80;99.90
7512;DHT22;9999;48.780;9.146;2023-04-25T09:48:40;7.80;99.90
7512;DHT22;9999;48.780;9.146;2023-04-25T09:51:14;7.80;99.90
7512;DHT22;9999;48.780;9.146;2023-04-25T09:53:44;7.80;99.90
7512;DHT22;9999;48.780;9.146;2023-04-25T09:56:35;7.80;99.90
7512;DHT22;9999;48.780;9.146;2023-04-25T09:59:05;7.80;99.90
7512;DHT22;9999;48.780;9.146;2023-04-25T10:01:37;7.70;99.90
7512;DHT22;9999;48.780;9.146;2023-04-25T10:04:20;7.80;99.90
7512;DHT22;9999;48.780;9.146;2023-04-25T10:06:57;7.80;99.90
7512;DHT22;9999;48.780;9.146;2023-04-25T10:09:26;7.80;99.90
7512;DHT22;9999;48.780;9.146;2023-04-25T10:11:58;7.70;99.90
7512;DHT22;9999;48.780;9.146;2023-04-25T10:14:25;7.80;99.90
7512;DHT22;9999;48.780;9.146;2023-04-25T10:17:04;7.80;99.90
7512;DHT22;9999;48.780;9.146;2023-04-25T10:19:33;7.80;99.90
7512;DHT22;9999;48.780;9.146;2023-04-25T10:22:06;7.80;99.90
7512;DHT22;9999;48.780;9.146;2023-04-25T10:24:35;7.70;99.90
7512;DHT22;9999;48.780;9.146;2023-04-25T10:27:02;7.70;99.90
7512;DHT22;9999;48.780;9.146;2023-04-25T10:29:29;7.70;99.90
7512;DHT22;9999;48.780;9.146;2023-04-25T10:31:57;7.70;99.90
7512;DHT22;9999;48.780;9.146;2023-04-25T10:34:25;7.60;99.90
7512;DHT22;9999;48.780;9.146;2023-04-25T10:37:05;7.60;99.90
7512;DHT22;9999;48.780;9.146;2023-04-25T10:39:32;7.50;99.90
7512;DHT22;9999;48.780;9.146;2023-04-25T10:42:02;7.40;99.90
7512;DHT22;9999;48.780;9.146;2023-04-25T10:44:30;7.40;99.90
7512;DHT22;9999;48.780;9.146;2023-04-25T10:46:57;7.40;99.90
7512;DHT22;9999;48.780;9.146;2023-04-25T10:49:32;7.40;99.90
7512;DHT22;9999;48.780;9.146;2023-04-25T10:52:18;7.40;99.90
7512;DHT22;9999;48.780;9.146;2023-04-25T10:54:46;7.40;99.90
7512;DHT22;9999;48.780;9.146;2023-04-25T10:57:30;7.30;99.90
7512;DHT22;9999;48.780;9.146;2023-04-25T11:00:05;7.10;99.90
7512;DHT22;9999;48.780;9.146;2023-04-25T11:02:37;7.00;99.90
7512;DHT22;9999;48.780;9.146;2023-04-25T11:05:05;6.90;99.90
7512;DHT22;9999;48.780;9.146;2023-04-25T11:07:38;7.00;99.90
7512;DHT22;9999;48.780;9.146;2023-04-25T11:10:06;7.10;99.90
7512;DHT22;9999;48.780;9.146;2023-04-25T11:12:33;7.00;99.90
7512;DHT22;9999;48.780;9.146;2023-04-25T11:15:02;7.00;99.90
7512;DHT22;9999;48.780;9.146;2023-04-25T11:17:29;7.10;99.90
7512;DHT22;9999;48.780;9.146;2023-04-25T11:19:56;7.20;99.90
7512;DHT22;9999;48.780;9.146;2023-04-25T11:22:23;7.20;99.90
7512;DHT22;9999;48.780;9.146;2023-04-25T11:24:51;7.20;99.90
7512;DHT22;9999;48.780;9.146;2023-04-25T11:27:18;7.30;99.90
7512;DHT22;9999;48.780;9.146;2023-04-25T11:29:45;7.40;99.90
7512;DHT22;9999;48.780;9.146;2023-04-25T11:32:14;7.40;99.90
7512;DHT22;9999;48.780;9.146;2023-04-25T11:34:44;7.40;99.90
7512;DHT22;9999;48.780;9.146;2023-04-25T11:37:11;7.40;99.90
7512;DHT22;9999;48.780;9.146;2023-04-25T11:39:43;7.40;99.90
7512;DHT22;9999;48.780;9.146;2023-04-25T11:42:12;7.50;99.90
7512;DHT22;9999;48.780;9.146;2023-04-25T11:44:39;7.50;99.90
7512;DHT22;9999;48.780;9.146;2023-04-25T11:47:06;7.50;99.90
7512;DHT22;9999;48.780;9.146;2023-04-25T11:49:33;7.50;99.90
7512;DHT22;9999;48.780;9.146;2023-04-25T11:52:01;7.60;99.90
7512;DHT22;9999;48.780;9.146;2023-04-25T11:54:28;7.60;99.90
7512;DHT22;9999;48.780;9.146;2023-04-25T11:56:54;7.60;99.90
7512;DHT22;9999;48.780;9.146;2023-04-25T11:59:24;7.60;99.90
7512;DHT22;9999;48.780;9.146;2023-04-25T12:01:52;7.50;99.90
7512;DHT22;9999;48.780;9.146;2023-04-25T12:04:21;7.60;99.90
7512;DHT22;9999;48.780;9.146;2023-04-25T12:06:49;7.50;99.90
7512;DHT22;9999;48.780;9.146;2023-04-25T12:09:17;7.50;99.90
7512;DHT22;9999;48.780;9.146;2023-04-25T12:11:46;7.50;99.90
7512;DHT22;9999;48.780;9.146;2023-04-25T12:14:20;7.70;99.90
7512;DHT22;9999;48.780;9.146;2023-04-25T12:16:50;7.70;99.90
7512;DHT22;9999;48.780;9.146;2023-04-25T12:19:18;7.70;99.90
7512;DHT22;9999;48.780;9.146;2023-04-25T12:21:45;7.80;99.90
7512;DHT22;9999;48.780;9.146;2023-04-25T12:24:14;7.70;99.90
7512;DHT22;9999;48.780;9.146;2023-04-25T12:26:48;7.80;99.90
7512;DHT22;9999;48.780;9.146;2023-04-25T12:29:16;7.70;99.90
7512;DHT22;9999;48.780;9.146;2023-04-25T12:31:43;7.80;99.90
7512;DHT22;9999;48.780;9.146;2023-04-25T12:34:12;7.80;99.90
7512;DHT22;9999;48.780;9.146;2023-04-25T12:36:39;7.90;99.90
7512;DHT22;9999;48.780;9.146;2023-04-25T12:39:06;7.90;99.90
7512;DHT22;9999;48.780;9.146;2023-04-25T12:41:33;8.00;99.90
7512;DHT22;9999;48.780;9.146;2023-04-25T12:44:00;8.00;99.90
7512;DHT22;9999;48.780;9.146;2023-04-25T12:46:27;8.10;99.90
7512;DHT22;9999;48.780;9.146;2023-04-25T12:48:54;8.10;99.90
7512;DHT22;9999;48.780;9.146;2023-04-25T12:51:23;8.20;99.90
7512;DHT22;9999;48.780;9.146;2023-04-25T12:53:51;8.20;99.90
7512;DHT22;9999;48.780;9.146;2023-04-25T12:56:18;8.30;99.90
7512;DHT22;9999;48.780;9.146;2023-04-25T12:58:46;8.50;99.90
7512;DHT22;9999;48.780;9.146;2023-04-25T13:01:13;8.60;99.90
7512;DHT22;9999;48.780;9.146;2023-04-25T13:03:40;8.70;99.90
7512;DHT22;9999;48.780;9.146;2023-04-25T13:06:07;8.70;99.90
7512;DHT22;9999;48.780;9.146;2023-04-25T13:08:35;8.60;99.90
7512;DHT22;9999;48.780;9.146;2023-04-25T13:11:04;8.70;99.90
7512;DHT22;9999;48.780;9.146;2023-04-25T13:13:30;8.90;99.90
7512;DHT22;9999;48.780;9.146;2023-04-25T13:16:00;9.30;99.90
7512;DHT22;9999;48.780;9.146;2023-04-25T13:18:27;9.50;99.90
7512;DHT22;9999;48.780;9.146;2023-04-25T13:20:54;9.60;99.90
7512;DHT22;9999;48.780;9.146;2023-04-25T13:23:21;9.50;99.90
7512;DHT22;9999;48.780;9.146;2023-04-25T13:25:49;9.30;99.90
7512;DHT22;9999;48.780;9.146;2023-04-25T13:28:16;9.30;99.90
7512;DHT22;9999;48.780;9.146;2023-04-25T13:30:43;9.30;99.90
7512;DHT22;9999;48.780;9.146;2023-04-25T13:33:11;9.30;99.90
7512;DHT22;9999;48.780;9.146;2023-04-25T13:35:38;9.30;99.90
7512;DHT22;9999;48.780;9.146;2023-04-25T13:38:05;9.30;99.90
7512;DHT22;9999;48.780;9.146;2023-04-25T13:40:32;9.30;99.90
7512;DHT22;9999;48.780;9.146;2023-04-25T13:43:01;9.40;99.90
7512;DHT22;9999;48.780;9.146;2023-04-25T13:45:27;9.30;99.90
7512;DHT22;9999;48.780;9.146;2023-04-25T13:47:54;9.10;99.90
7512;DHT22;9999;48.780;9.146;2023-04-25T13:50:21;9.10;99.90
7512;DHT22;9999;48.780;9.146;2023-04-25T13:52:48;9.00;99.90
7512;DHT22;9999;48.780;9.146;2023-04-25T13:55:15;9.10;99.90
7512;DHT22;9999;48.780;9.146;2023-04-25T13:57:41;9.20;99.90
7512;DHT22;9999;48.780;9.146;2023-04-25T14:00:11;9.30;99.90
7512;DHT22;9999;48.780;9.146;2023-04-25T14:02:38;9.40;99.90
7512;DHT22;9999;48.780;9.146;2023-04-25T14:05:06;9.40;99.90
7512;DHT22;9999;48.780;9.146;2023-04-25T14:07:33;9.50;99.90
7512;DHT22;9999;48.780;9.146;2023-04-25T14:10:00;9.40;99.90
7512;DHT22;9999;48.780;9.146;2023-04-25T14:12:27;9.50;99.90
7512;DHT22;9999;48.780;9.146;2023-04-25T14:14:54;9.60;99.90
7512;DHT22;9999;48.780;9.146;2023-04-25T14:17:22;9.70;99.90
7512;DHT22;9999;48.780;9.146;2023-04-25T14:19:49;9.80;99.90
7512;DHT22;9999;48.780;9.146;2023-04-25T14:22:16;10.00;99.90
7512;DHT22;9999;48.780;9.146;2023-04-25T14:24:43;9.80;99.90
7512;DHT22;9999;48.780;9.146;2023-04-25T14:27:10;9.90;99.90
7512;DHT22;9999;48.780;9.146;2023-04-25T14:29:37;10.20;99.90
7512;DHT22;9999;48.780;9.146;2023-04-25T14:32:04;10.40;99.90
7512;DHT22;9999;48.780;9.146;2023-04-25T14:34:33;10.40;99.90
7512;DHT22;9999;48.780;9.146;2023-04-25T14:37:00;10.30;99.90
7512;DHT22;9999;48.780;9.146;2023-04-25T14:39:27;10.20;99.90
7512;DHT22;9999;48.780;9.146;2023-04-25T14:41:53;10.10;99.90
7512;DHT22;9999;48.780;9.146;2023-04-25T14:44:21;9.90;99.90
7512;DHT22;9999;48.780;9.146;2023-04-25T14:46:48;9.90;99.90
7512;DHT22;9999;48.780;9.146;2023-04-25T14:49:17;9.80;99.90
7512;DHT22;9999;48.780;9.146;2023-04-25T14:51:45;9.80;99.90
7512;DHT22;9999;48.780;9.146;2023-04-25T14:54:12;9.90;99.90
7512;DHT22;9999;48.780;9.146;2023-04-25T14:56:38;9.90;99.90
7512;DHT22;9999;48.780;9.146;2023-04-25T14:59:05;10.10;99.90
7512;DHT22;9999;48.780;9.146;2023-04-25T15:01:32;10.10;99.90
7512;DHT22;9999;48.780;9.146;2023-04-25T15:03:59;10.30;99.90
7512;DHT22;9999;48.780;9.146;2023-04-25T15:06:26;10.60;99.90
7512;DHT22;9999;48.780;9.146;2023-04-25T15:08:55;10.70;99.90
7512;DHT22;9999;48.780;9.146;2023-04-25T15:11:22;10.80;99.90
7512;DHT22;9999;48.780;9.146;2023-04-25T15:13:49;10.80;99.90
7512;DHT22;9999;48.780;9.146;2023-04-25T15:16:16;10.80;99.90
7512;DHT22;9999;48.780;9.146;2023-04-25T15:18:43;10.60;99.90
7512;DHT22;9999;48.780;9.146;2023-04-25T15:21:09;10.50;99.90
7512;DHT22;9999;48.780;9.146;2023-04-25T15:23:36;10.50;99.90
7512;DHT22;9999;48.780;9.146;2023-04-25T15:26:04;10.20;99.90
7512;DHT22;9999;48.780;9.146;2023-04-25T15:28:31;10.00;99.90
7512;DHT22;9999;48.780;9.146;2023-04-25T15:30:59;9.90;99.90
7512;DHT22;9999;48.780;9.146;2023-04-25T15:33:26;9.90;99.90
7512;DHT22;9999;48.780;9.146;2023-04-25T15:35:52;9.90;99.90
7512;DHT22;9999;48.780;9.146;2023-04-25T15:38:19;9.80;99.90
7512;DHT22;9999;48.780;9.146;2023-04-25T15:40:46;9.80;99.90
7512;DHT22;9999;48.780;9.146;2023-04-25T15:43:14;9.70;99.90
7512;DHT22;9999;48.780;9.146;2023-04-25T15:45:42;9.80;99.90
7512;DHT22;9999;48.780;9.146;2023-04-25T15:48:09;9.80;99.90
7512;DHT22;9999;48.780;9.146;2023-04-25T15:50:36;9.80;99.90
7512;DHT22;9999;48.780;9.146;2023-04-25T15:53:03;9.80;99.90
7512;DHT22;9999;48.780;9.146;2023-04-25T15:55:30;9.90;99.90
7512;DHT22;9999;48.780;9.146;2023-04-25T15:57:58;9.90;99.90
7512;DHT22;9999;48.780;9.146;2023-04-25T16:00:26;9.90;99.90
7512;DHT22;9999;48.780;9.146;2023-04-25T16:02:53;9.90;99.90
7512;DHT22;9999;48.780;9.146;2023-04-25T16:05:20;9.80;99.90
7512;DHT22;9999;48.780;9.146;2023-04-25T16:07:47;9.80;99.90
7512;DHT22;9999;48.780;9.146;2023-04-25T16:10:14;9.80;99.90
7512;DHT22;9999;48.780;9.146;2023-04-25T16:12:44;9.80;99.90
7512;DHT22;9999;48.780;9.146;2023-04-25T16:15:13;9.70;99.90
7512;DHT22;9999;48.780;9.146;2023-04-25T16:17:41;9.80;99.90
7512;DHT22;9999;48.780;9.146;2023-04-25T16:20:09;9.80;99.90
7512;DHT22;9999;48.780;9.146;2023-04-25T16:22:38;9.80;99.90
7512;DHT22;9999;48.780;9.146;2023-04-25T16:25:05;9.70;99.90
7512;DHT22;9999;48.780;9.146;2023-04-25T16:27:32;9.70;99.90
7512;DHT22;9999;48.780;9.146;2023-04-25T16:30:00;9.70;99.90
7512;DHT22;9999;48.780;9.146;2023-04-25T16:32:27;9.70;99.90
7512;DHT22;9999;48.780;9.146;2023-04-25T16:34:55;9.70;99.90
7512;DHT22;9999;48.780;9.146;2023-04-25T16:37:23;9.60;99.90